Terminal Aerodrome Forecast
Issued by NWS

Home | Current Version | Previous Version | Text Only | Print | Product List | Glossary Off
Versions: 1 2 3 4 5 6 7 8 9 10 11 12 13 14 15

000
FTUS43 KGRB 291132
TAFRHI
TAF
KRHI 291132Z 2912/3012 23007KT P6SM SCT006 BKN012
      TEMPO 2912/2914 BKN006
     FM291400 24009G15KT P6SM VCSH SCT012 OVC025
      TEMPO 2916/2920 4SM -SHRA BKN012
     FM292200 26009G16KT P6SM BKN035
     FM300200 26004KT P6SM SCT035
      TEMPO 3008/3012 2SM BR=

USA.gov is the U.S. government's official web portal to all federal, state and local government web resources and services.